Leeds, United Kingdom
Current Conditions -  °F | °C
As of 7:20 AM on Thursday 18 Dec 2014 (Local Time) from EGNM Reporting Station
Broken Clouds Broken Clouds  
Wind Chill: 52°   Ceiling: 1200
Heat Index: 52°   Visibility: 6mi
Dew Point: 50°   Wind: 18mph
Humidity: 94%   Direction: 250°WSW
Pressure: 29.56"   Gusts: NA
Location:  53.8°N, 1.55°W
Report Text: EGNM 180720Z 25016KT 9999 BKN012 11/10 Q1001
Loading
Personal Weather Stations






























Interactive Weather Map New forecast layout! Learn more

10-Day Weather Forecast

Advertisements
Track Severe Weather on mobile